sensor_id;sensor_type;location;lat;lon;timestamp;P1;durP1;ratioP1;P2;durP2;ratioP2
35891;SDS011;21993;42.672;23.296;2023-02-08T00:01:11;19.60;;;11.53;;
35891;SDS011;21993;42.672;23.296;2023-02-08T00:03:38;23.30;;;11.40;;
35891;SDS011;21993;42.672;23.296;2023-02-08T00:06:04;22.63;;;12.77;;
35891;SDS011;21993;42.672;23.296;2023-02-08T00:08:31;26.50;;;12.77;;
35891;SDS011;21993;42.672;23.296;2023-02-08T00:10:57;23.80;;;12.53;;
35891;SDS011;21993;42.672;23.296;2023-02-08T00:13:22;23.27;;;12.40;;
35891;SDS011;21993;42.672;23.296;2023-02-08T00:15:50;19.63;;;11.53;;
35891;SDS011;21993;42.672;23.296;2023-02-08T00:18:16;21.13;;;12.23;;
35891;SDS011;21993;42.672;23.296;2023-02-08T00:20:42;23.37;;;12.43;;
35891;SDS011;21993;42.672;23.296;2023-02-08T00:23:08;23.67;;;12.63;;
35891;SDS011;21993;42.672;23.296;2023-02-08T00:25:34;21.93;;;11.83;;
35891;SDS011;21993;42.672;23.296;2023-02-08T00:27:59;21.17;;;12.00;;
35891;SDS011;21993;42.672;23.296;2023-02-08T00:30:25;20.00;;;11.77;;
35891;SDS011;21993;42.672;23.296;2023-02-08T00:32:50;22.60;;;11.70;;
35891;SDS011;21993;42.672;23.296;2023-02-08T00:35:16;20.00;;;11.23;;
35891;SDS011;21993;42.672;23.296;2023-02-08T00:37:41;22.07;;;11.90;;
35891;SDS011;21993;42.672;23.296;2023-02-08T00:40:07;20.63;;;11.07;;
35891;SDS011;21993;42.672;23.296;2023-02-08T00:42:33;23.17;;;12.47;;
35891;SDS011;21993;42.672;23.296;2023-02-08T00:44:58;18.30;;;11.03;;
35891;SDS011;21993;42.672;23.296;2023-02-08T00:47:24;20.03;;;10.57;;
35891;SDS011;21993;42.672;23.296;2023-02-08T00:49:50;21.00;;;12.30;;
35891;SDS011;21993;42.672;23.296;2023-02-08T00:52:15;21.83;;;12.10;;
35891;SDS011;21993;42.672;23.296;2023-02-08T00:54:41;22.20;;;11.40;;
35891;SDS011;21993;42.672;23.296;2023-02-08T00:57:07;22.60;;;12.50;;
35891;SDS011;21993;42.672;23.296;2023-02-08T00:59:33;23.73;;;12.63;;
35891;SDS011;21993;42.672;23.296;2023-02-08T01:01:59;20.47;;;11.77;;
35891;SDS011;21993;42.672;23.296;2023-02-08T01:04:24;22.07;;;12.20;;
35891;SDS011;21993;42.672;23.296;2023-02-08T01:06:50;21.63;;;11.73;;
35891;SDS011;21993;42.672;23.296;2023-02-08T01:09:15;24.03;;;12.50;;
35891;SDS011;21993;42.672;23.296;2023-02-08T01:11:41;22.67;;;11.93;;
35891;SDS011;21993;42.672;23.296;2023-02-08T01:14:06;20.53;;;12.17;;
35891;SDS011;21993;42.672;23.296;2023-02-08T01:16:32;21.50;;;11.97;;
35891;SDS011;21993;42.672;23.296;2023-02-08T01:18:59;21.00;;;12.47;;
35891;SDS011;21993;42.672;23.296;2023-02-08T01:21:26;21.57;;;11.90;;
35891;SDS011;21993;42.672;23.296;2023-02-08T01:24:00;22.17;;;12.30;;
35891;SDS011;21993;42.672;23.296;2023-02-08T01:26:26;21.20;;;12.87;;
35891;SDS011;21993;42.672;23.296;2023-02-08T01:28:52;27.80;;;13.57;;
35891;SDS011;21993;42.672;23.296;2023-02-08T01:31:23;25.83;;;13.43;;
35891;SDS011;21993;42.672;23.296;2023-02-08T01:33:50;27.57;;;14.27;;
35891;SDS011;21993;42.672;23.296;2023-02-08T01:36:15;24.17;;;13.13;;
35891;SDS011;21993;42.672;23.296;2023-02-08T01:38:42;26.60;;;13.10;;
35891;SDS011;21993;42.672;23.296;2023-02-08T01:41:12;22.27;;;12.60;;
35891;SDS011;21993;42.672;23.296;2023-02-08T01:46:47;24.27;;;12.93;;
35891;SDS011;21993;42.672;23.296;2023-02-08T01:49:16;25.70;;;12.73;;
35891;SDS011;21993;42.672;23.296;2023-02-08T01:51:44;25.47;;;12.90;;
35891;SDS011;21993;42.672;23.296;2023-02-08T01:54:13;22.47;;;12.47;;
35891;SDS011;21993;42.672;23.296;2023-02-08T01:56:42;25.60;;;13.87;;
35891;SDS011;21993;42.672;23.296;2023-02-08T01:59:13;23.77;;;13.53;;
35891;SDS011;21993;42.672;23.296;2023-02-08T02:01:45;25.43;;;14.27;;
35891;SDS011;21993;42.672;23.296;2023-02-08T02:04:13;25.77;;;14.67;;
35891;SDS011;21993;42.672;23.296;2023-02-08T02:06:40;24.07;;;13.47;;
35891;SDS011;21993;42.672;23.296;2023-02-08T02:11:42;27.07;;;14.93;;
35891;SDS011;21993;42.672;23.296;2023-02-08T02:14:08;24.33;;;13.97;;
35891;SDS011;21993;42.672;23.296;2023-02-08T02:16:34;25.80;;;13.83;;
35891;SDS011;21993;42.672;23.296;2023-02-08T02:19:00;26.80;;;14.70;;
35891;SDS011;21993;42.672;23.296;2023-02-08T02:35:35;29.83;;;15.07;;
35891;SDS011;21993;42.672;23.296;2023-02-08T02:44:01;32.87;;;16.37;;
35891;SDS011;21993;42.672;23.296;2023-02-08T02:46:35;27.63;;;16.50;;
35891;SDS011;21993;42.672;23.296;2023-02-08T02:49:11;32.10;;;16.37;;
35891;SDS011;21993;42.672;23.296;2023-02-08T02:51:47;31.07;;;16.67;;
35891;SDS011;21993;42.672;23.296;2023-02-08T02:54:25;32.00;;;16.07;;
35891;SDS011;21993;42.672;23.296;2023-02-08T02:56:57;30.43;;;17.10;;
35891;SDS011;21993;42.672;23.296;2023-02-08T02:59:26;33.47;;;17.13;;
35891;SDS011;21993;42.672;23.296;2023-02-08T03:01:53;26.87;;;15.80;;
35891;SDS011;21993;42.672;23.296;2023-02-08T03:18:34;36.57;;;17.93;;
35891;SDS011;21993;42.672;23.296;2023-02-08T03:23:29;32.57;;;16.97;;
35891;SDS011;21993;42.672;23.296;2023-02-08T03:29:02;28.47;;;15.17;;
35891;SDS011;21993;42.672;23.296;2023-02-08T03:36:32;27.40;;;16.07;;
35891;SDS011;21993;42.672;23.296;2023-02-08T03:39:05;32.20;;;17.53;;
35891;SDS011;21993;42.672;23.296;2023-02-08T03:41:36;31.67;;;16.77;;
35891;SDS011;21993;42.672;23.296;2023-02-08T03:44:06;30.03;;;16.87;;
35891;SDS011;21993;42.672;23.296;2023-02-08T03:46:37;35.10;;;16.97;;
35891;SDS011;21993;42.672;23.296;2023-02-08T03:49:07;32.57;;;17.27;;
35891;SDS011;21993;42.672;23.296;2023-02-08T03:51:37;35.13;;;18.30;;
35891;SDS011;21993;42.672;23.296;2023-02-08T03:54:05;35.93;;;17.50;;
35891;SDS011;21993;42.672;23.296;2023-02-08T03:59:08;31.80;;;19.03;;
35891;SDS011;21993;42.672;23.296;2023-02-08T04:01:43;30.83;;;17.03;;
35891;SDS011;21993;42.672;23.296;2023-02-08T04:04:12;31.63;;;17.70;;
35891;SDS011;21993;42.672;23.296;2023-02-08T04:06:41;30.17;;;17.80;;
35891;SDS011;21993;42.672;23.296;2023-02-08T04:09:07;34.10;;;17.83;;
35891;SDS011;21993;42.672;23.296;2023-02-08T04:11:32;34.20;;;17.80;;
35891;SDS011;21993;42.672;23.296;2023-02-08T04:13:58;33.47;;;18.27;;
35891;SDS011;21993;42.672;23.296;2023-02-08T04:16:23;35.60;;;19.03;;
35891;SDS011;21993;42.672;23.296;2023-02-08T04:18:48;39.20;;;18.70;;
35891;SDS011;21993;42.672;23.296;2023-02-08T04:21:14;32.80;;;17.93;;
35891;SDS011;21993;42.672;23.296;2023-02-08T04:23:39;36.10;;;17.50;;
35891;SDS011;21993;42.672;23.296;2023-02-08T04:26:05;35.77;;;19.03;;
35891;SDS011;21993;42.672;23.296;2023-02-08T04:28:32;32.57;;;18.00;;
35891;SDS011;21993;42.672;23.296;2023-02-08T04:30:58;36.47;;;18.43;;
35891;SDS011;21993;42.672;23.296;2023-02-08T04:33:24;35.03;;;17.80;;
35891;SDS011;21993;42.672;23.296;2023-02-08T04:35:49;35.67;;;18.57;;
35891;SDS011;21993;42.672;23.296;2023-02-08T04:38:15;33.40;;;17.83;;
35891;SDS011;21993;42.672;23.296;2023-02-08T04:40:40;35.13;;;17.13;;
35891;SDS011;21993;42.672;23.296;2023-02-08T04:43:05;42.47;;;19.60;;
35891;SDS011;21993;42.672;23.296;2023-02-08T04:45:31;35.83;;;18.20;;
35891;SDS011;21993;42.672;23.296;2023-02-08T04:47:57;34.83;;;17.97;;
35891;SDS011;21993;42.672;23.296;2023-02-08T04:50:24;38.00;;;18.53;;
35891;SDS011;21993;42.672;23.296;2023-02-08T04:52:50;32.40;;;18.63;;
35891;SDS011;21993;42.672;23.296;2023-02-08T04:55:16;36.20;;;17.80;;
35891;SDS011;21993;42.672;23.296;2023-02-08T04:57:41;33.73;;;19.00;;
35891;SDS011;21993;42.672;23.296;2023-02-08T05:00:07;32.33;;;17.83;;
35891;SDS011;21993;42.672;23.296;2023-02-08T05:02:33;37.47;;;18.70;;
35891;SDS011;21993;42.672;23.296;2023-02-08T05:04:58;41.93;;;19.93;;
35891;SDS011;21993;42.672;23.296;2023-02-08T05:07:24;33.03;;;16.93;;
35891;SDS011;21993;42.672;23.296;2023-02-08T05:09:49;37.17;;;18.20;;
35891;SDS011;21993;42.672;23.296;2023-02-08T05:12:14;41.83;;;18.37;;
35891;SDS011;21993;42.672;23.296;2023-02-08T05:14:40;36.00;;;19.53;;
35891;SDS011;21993;42.672;23.296;2023-02-08T05:17:05;34.40;;;19.73;;
35891;SDS011;21993;42.672;23.296;2023-02-08T05:19:31;43.30;;;20.97;;
35891;SDS011;21993;42.672;23.296;2023-02-08T05:21:56;39.60;;;20.53;;
35891;SDS011;21993;42.672;23.296;2023-02-08T05:24:21;39.90;;;20.73;;
35891;SDS011;21993;42.672;23.296;2023-02-08T05:26:47;40.03;;;20.53;;
35891;SDS011;21993;42.672;23.296;2023-02-08T05:29:13;40.27;;;20.40;;
35891;SDS011;21993;42.672;23.296;2023-02-08T05:31:39;39.80;;;19.30;;
35891;SDS011;21993;42.672;23.296;2023-02-08T05:34:05;38.67;;;21.17;;
35891;SDS011;21993;42.672;23.296;2023-02-08T05:36:30;37.87;;;20.70;;
35891;SDS011;21993;42.672;23.296;2023-02-08T05:38:56;35.20;;;18.93;;
35891;SDS011;21993;42.672;23.296;2023-02-08T05:41:21;38.70;;;20.33;;
35891;SDS011;21993;42.672;23.296;2023-02-08T05:43:46;35.27;;;18.03;;
35891;SDS011;21993;42.672;23.296;2023-02-08T05:46:12;38.77;;;18.60;;
35891;SDS011;21993;42.672;23.296;2023-02-08T05:48:38;36.87;;;19.63;;
35891;SDS011;21993;42.672;23.296;2023-02-08T05:51:03;38.63;;;18.63;;
35891;SDS011;21993;42.672;23.296;2023-02-08T05:53:29;38.37;;;18.80;;
35891;SDS011;21993;42.672;23.296;2023-02-08T05:55:55;32.33;;;18.13;;
35891;SDS011;21993;42.672;23.296;2023-02-08T05:58:22;31.27;;;17.50;;
35891;SDS011;21993;42.672;23.296;2023-02-08T06:00:48;34.87;;;18.03;;
35891;SDS011;21993;42.672;23.296;2023-02-08T06:03:13;32.23;;;17.33;;
35891;SDS011;21993;42.672;23.296;2023-02-08T06:05:39;32.83;;;17.63;;
35891;SDS011;21993;42.672;23.296;2023-02-08T06:08:05;36.20;;;20.00;;
35891;SDS011;21993;42.672;23.296;2023-02-08T06:10:31;38.30;;;20.17;;
35891;SDS011;21993;42.672;23.296;2023-02-08T06:12:56;38.53;;;19.33;;
35891;SDS011;21993;42.672;23.296;2023-02-08T06:15:22;34.97;;;18.60;;
35891;SDS011;21993;42.672;23.296;2023-02-08T06:17:47;37.97;;;19.13;;
35891;SDS011;21993;42.672;23.296;2023-02-08T06:20:13;43.17;;;19.63;;
35891;SDS011;21993;42.672;23.296;2023-02-08T06:22:38;37.20;;;18.83;;
35891;SDS011;21993;42.672;23.296;2023-02-08T06:25:04;37.97;;;19.80;;
35891;SDS011;21993;42.672;23.296;2023-02-08T06:27:29;29.37;;;17.90;;
35891;SDS011;21993;42.672;23.296;2023-02-08T06:29:55;31.27;;;17.57;;
35891;SDS011;21993;42.672;23.296;2023-02-08T06:32:20;32.33;;;16.67;;
35891;SDS011;21993;42.672;23.296;2023-02-08T06:34:46;31.57;;;16.00;;
35891;SDS011;21993;42.672;23.296;2023-02-08T06:37:14;31.53;;;17.03;;
35891;SDS011;21993;42.672;23.296;2023-02-08T06:39:41;36.73;;;18.20;;
35891;SDS011;21993;42.672;23.296;2023-02-08T06:42:07;32.90;;;17.17;;
35891;SDS011;21993;42.672;23.296;2023-02-08T06:44:32;36.43;;;18.67;;
35891;SDS011;21993;42.672;23.296;2023-02-08T06:46:58;31.53;;;17.83;;
35891;SDS011;21993;42.672;23.296;2023-02-08T06:49:23;28.03;;;16.40;;
35891;SDS011;21993;42.672;23.296;2023-02-08T06:51:49;29.23;;;16.20;;
35891;SDS011;21993;42.672;23.296;2023-02-08T06:54:14;23.07;;;13.43;;
35891;SDS011;21993;42.672;23.296;2023-02-08T06:56:40;26.33;;;14.47;;
35891;SDS011;21993;42.672;23.296;2023-02-08T06:59:05;27.37;;;15.70;;
35891;SDS011;21993;42.672;23.296;2023-02-08T07:01:31;35.33;;;17.73;;
35891;SDS011;21993;42.672;23.296;2023-02-08T07:03:56;28.37;;;18.33;;
35891;SDS011;21993;42.672;23.296;2023-02-08T07:06:21;33.67;;;18.47;;
35891;SDS011;21993;42.672;23.296;2023-02-08T07:08:47;37.37;;;19.13;;
35891;SDS011;21993;42.672;23.296;2023-02-08T07:11:14;41.13;;;19.43;;
35891;SDS011;21993;42.672;23.296;2023-02-08T07:13:40;38.83;;;20.80;;
35891;SDS011;21993;42.672;23.296;2023-02-08T07:16:06;36.77;;;19.37;;
35891;SDS011;21993;42.672;23.296;2023-02-08T07:18:33;34.70;;;17.53;;
35891;SDS011;21993;42.672;23.296;2023-02-08T07:20:59;28.33;;;17.23;;
35891;SDS011;21993;42.672;23.296;2023-02-08T07:23:25;29.83;;;16.37;;
35891;SDS011;21993;42.672;23.296;2023-02-08T07:25:57;28.53;;;16.40;;
35891;SDS011;21993;42.672;23.296;2023-02-08T07:28:22;34.93;;;17.47;;
35891;SDS011;21993;42.672;23.296;2023-02-08T07:30:48;31.93;;;15.63;;
35891;SDS011;21993;42.672;23.296;2023-02-08T07:33:13;34.53;;;16.47;;
35891;SDS011;21993;42.672;23.296;2023-02-08T07:35:39;30.70;;;14.63;;
35891;SDS011;21993;42.672;23.296;2023-02-08T07:38:04;26.83;;;14.27;;
35891;SDS011;21993;42.672;23.296;2023-02-08T07:40:29;25.57;;;13.50;;
35891;SDS011;21993;42.672;23.296;2023-02-08T07:42:56;29.67;;;14.87;;
35891;SDS011;21993;42.672;23.296;2023-02-08T07:45:21;24.87;;;14.73;;
35891;SDS011;21993;42.672;23.296;2023-02-08T07:47:47;22.67;;;14.50;;
35891;SDS011;21993;42.672;23.296;2023-02-08T07:50:13;26.77;;;15.27;;
35891;SDS011;21993;42.672;23.296;2023-02-08T07:52:42;28.53;;;16.33;;
35891;SDS011;21993;42.672;23.296;2023-02-08T07:55:10;26.77;;;15.03;;
35891;SDS011;21993;42.672;23.296;2023-02-08T07:57:40;27.73;;;15.63;;
35891;SDS011;21993;42.672;23.296;2023-02-08T08:00:10;29.40;;;16.33;;
35891;SDS011;21993;42.672;23.296;2023-02-08T08:02:36;26.03;;;14.77;;
35891;SDS011;21993;42.672;23.296;2023-02-08T08:05:02;33.57;;;15.97;;
35891;SDS011;21993;42.672;23.296;2023-02-08T08:07:27;29.07;;;15.67;;
35891;SDS011;21993;42.672;23.296;2023-02-08T08:09:53;23.20;;;15.00;;
35891;SDS011;21993;42.672;23.296;2023-02-08T08:12:18;29.37;;;16.73;;
35891;SDS011;21993;42.672;23.296;2023-02-08T08:14:43;31.37;;;17.17;;
35891;SDS011;21993;42.672;23.296;2023-02-08T08:17:09;27.97;;;15.47;;
35891;SDS011;21993;42.672;23.296;2023-02-08T08:19:34;28.43;;;15.40;;
35891;SDS011;21993;42.672;23.296;2023-02-08T08:22:00;30.97;;;16.17;;
35891;SDS011;21993;42.672;23.296;2023-02-08T08:24:25;28.10;;;15.70;;
35891;SDS011;21993;42.672;23.296;2023-02-08T08:26:51;31.77;;;15.60;;
35891;SDS011;21993;42.672;23.296;2023-02-08T08:29:16;29.93;;;16.20;;
35891;SDS011;21993;42.672;23.296;2023-02-08T08:31:42;32.67;;;16.80;;
35891;SDS011;21993;42.672;23.296;2023-02-08T08:34:07;29.17;;;16.37;;
35891;SDS011;21993;42.672;23.296;2023-02-08T08:36:33;29.73;;;16.20;;
35891;SDS011;21993;42.672;23.296;2023-02-08T08:38:58;29.13;;;16.97;;
35891;SDS011;21993;42.672;23.296;2023-02-08T08:41:24;29.30;;;16.23;;
35891;SDS011;21993;42.672;23.296;2023-02-08T08:43:51;25.90;;;15.63;;
35891;SDS011;21993;42.672;23.296;2023-02-08T08:46:17;25.40;;;16.33;;
35891;SDS011;21993;42.672;23.296;2023-02-08T08:48:42;26.90;;;15.97;;
35891;SDS011;21993;42.672;23.296;2023-02-08T08:51:08;28.30;;;16.93;;
35891;SDS011;21993;42.672;23.296;2023-02-08T08:53:33;27.40;;;15.53;;
35891;SDS011;21993;42.672;23.296;2023-02-08T08:56:00;31.80;;;16.90;;
35891;SDS011;21993;42.672;23.296;2023-02-08T08:58:26;27.50;;;15.80;;
35891;SDS011;21993;42.672;23.296;2023-02-08T09:00:52;32.50;;;16.13;;
35891;SDS011;21993;42.672;23.296;2023-02-08T09:03:19;29.33;;;15.50;;
35891;SDS011;21993;42.672;23.296;2023-02-08T09:05:45;28.53;;;16.40;;
35891;SDS011;21993;42.672;23.296;2023-02-08T09:08:10;28.37;;;16.43;;
35891;SDS011;21993;42.672;23.296;2023-02-08T09:10:37;29.43;;;16.70;;
35891;SDS011;21993;42.672;23.296;2023-02-08T09:13:03;31.33;;;15.33;;
35891;SDS011;21993;42.672;23.296;2023-02-08T09:15:28;24.47;;;13.87;;
35891;SDS011;21993;42.672;23.296;2023-02-08T09:17:53;28.50;;;16.13;;
35891;SDS011;21993;42.672;23.296;2023-02-08T09:20:19;21.67;;;13.37;;
35891;SDS011;21993;42.672;23.296;2023-02-08T09:22:45;24.80;;;13.00;;
35891;SDS011;21993;42.672;23.296;2023-02-08T09:25:11;24.07;;;12.67;;
35891;SDS011;21993;42.672;23.296;2023-02-08T09:27:36;22.17;;;13.40;;
35891;SDS011;21993;42.672;23.296;2023-02-08T09:30:02;24.33;;;12.33;;
35891;SDS011;21993;42.672;23.296;2023-02-08T09:32:31;20.50;;;12.67;;
35891;SDS011;21993;42.672;23.296;2023-02-08T09:34:58;24.37;;;12.77;;
35891;SDS011;21993;42.672;23.296;2023-02-08T09:37:24;23.00;;;13.27;;
35891;SDS011;21993;42.672;23.296;2023-02-08T09:39:49;22.07;;;13.20;;
35891;SDS011;21993;42.672;23.296;2023-02-08T09:42:19;23.40;;;12.93;;
35891;SDS011;21993;42.672;23.296;2023-02-08T09:52:33;22.40;;;12.97;;
35891;SDS011;21993;42.672;23.296;2023-02-08T09:55:09;23.97;;;12.63;;
35891;SDS011;21993;42.672;23.296;2023-02-08T09:57:57;22.67;;;11.93;;
35891;SDS011;21993;42.672;23.296;2023-02-08T10:06:09;22.00;;;11.33;;
35891;SDS011;21993;42.672;23.296;2023-02-08T10:08:38;20.87;;;12.17;;
35891;SDS011;21993;42.672;23.296;2023-02-08T10:19:23;19.53;;;12.07;;
35891;SDS011;21993;42.672;23.296;2023-02-08T10:21:55;19.10;;;11.93;;
35891;SDS011;21993;42.672;23.296;2023-02-08T10:33:01;32.23;;;15.90;;
35891;SDS011;21993;42.672;23.296;2023-02-08T10:35:32;26.30;;;13.87;;
35891;SDS011;21993;42.672;23.296;2023-02-08T10:38:22;23.20;;;12.30;;
35891;SDS011;21993;42.672;23.296;2023-02-08T10:40:54;24.43;;;12.60;;
35891;SDS011;21993;42.672;23.296;2023-02-08T10:51:35;20.50;;;12.17;;
35891;SDS011;21993;42.672;23.296;2023-02-08T10:54:01;19.00;;;11.43;;
35891;SDS011;21993;42.672;23.296;2023-02-08T10:58:59;17.47;;;11.90;;
35891;SDS011;21993;42.672;23.296;2023-02-08T11:01:29;19.10;;;10.83;;
35891;SDS011;21993;42.672;23.296;2023-02-08T11:04:01;16.67;;;10.57;;
35891;SDS011;21993;42.672;23.296;2023-02-08T11:06:29;17.43;;;11.07;;
35891;SDS011;21993;42.672;23.296;2023-02-08T11:08:55;13.40;;;10.13;;
35891;SDS011;21993;42.672;23.296;2023-02-08T11:11:23;22.07;;;11.10;;
35891;SDS011;21993;42.672;23.296;2023-02-08T11:13:51;14.80;;;10.10;;
35891;SDS011;21993;42.672;23.296;2023-02-08T11:16:26;13.40;;;9.60;;
35891;SDS011;21993;42.672;23.296;2023-02-08T11:18:53;17.70;;;11.10;;
35891;SDS011;21993;42.672;23.296;2023-02-08T11:21:21;16.67;;;11.30;;
35891;SDS011;21993;42.672;23.296;2023-02-08T11:23:52;23.83;;;11.03;;
35891;SDS011;21993;42.672;23.296;2023-02-08T11:26:23;14.40;;;10.23;;
35891;SDS011;21993;42.672;23.296;2023-02-08T11:34:19;20.10;;;11.23;;
35891;SDS011;21993;42.672;23.296;2023-02-08T11:36:52;18.23;;;11.60;;
35891;SDS011;21993;42.672;23.296;2023-02-08T11:39:38;17.00;;;10.73;;
35891;SDS011;21993;42.672;23.296;2023-02-08T11:42:12;16.43;;;10.40;;
35891;SDS011;21993;42.672;23.296;2023-02-08T11:44:44;22.20;;;11.83;;
35891;SDS011;21993;42.672;23.296;2023-02-08T11:47:10;20.53;;;11.47;;
35891;SDS011;21993;42.672;23.296;2023-02-08T11:49:42;23.57;;;11.17;;
35891;SDS011;21993;42.672;23.296;2023-02-08T11:52:31;19.70;;;11.50;;
35891;SDS011;21993;42.672;23.296;2023-02-08T11:57:53;15.97;;;10.60;;
35891;SDS011;21993;42.672;23.296;2023-02-08T12:00:20;14.17;;;9.33;;
35891;SDS011;21993;42.672;23.296;2023-02-08T12:02:48;15.87;;;10.10;;
35891;SDS011;21993;42.672;23.296;2023-02-08T12:05:19;17.97;;;10.43;;
35891;SDS011;21993;42.672;23.296;2023-02-08T12:10:44;18.67;;;9.43;;
35891;SDS011;21993;42.672;23.296;2023-02-08T12:21:44;18.93;;;10.37;;
35891;SDS011;21993;42.672;23.296;2023-02-08T12:41:34;12.40;;;8.90;;
35891;SDS011;21993;42.672;23.296;2023-02-08T12:49:56;15.43;;;8.37;;
35891;SDS011;21993;42.672;23.296;2023-02-08T12:52:37;10.77;;;7.10;;
35891;SDS011;21993;42.672;23.296;2023-02-08T12:55:24;8.10;;;6.17;;
35891;SDS011;21993;42.672;23.296;2023-02-08T12:57:53;10.13;;;6.60;;
35891;SDS011;21993;42.672;23.296;2023-02-08T13:00:27;12.27;;;6.77;;
35891;SDS011;21993;42.672;23.296;2023-02-08T13:05:41;11.10;;;6.63;;
35891;SDS011;21993;42.672;23.296;2023-02-08T13:11:03;10.37;;;6.37;;
35891;SDS011;21993;42.672;23.296;2023-02-08T13:13:38;13.23;;;7.20;;
35891;SDS011;21993;42.672;23.296;2023-02-08T13:16:16;9.70;;;6.07;;
35891;SDS011;21993;42.672;23.296;2023-02-08T13:18:53;12.20;;;6.93;;
35891;SDS011;21993;42.672;23.296;2023-02-08T13:21:28;14.40;;;6.80;;
35891;SDS011;21993;42.672;23.296;2023-02-08T13:24:01;8.13;;;5.67;;
35891;SDS011;21993;42.672;23.296;2023-02-08T13:26:34;10.63;;;6.60;;
35891;SDS011;21993;42.672;23.296;2023-02-08T13:29:03;12.53;;;6.33;;
35891;SDS011;21993;42.672;23.296;2023-02-08T13:31:41;9.67;;;5.70;;
35891;SDS011;21993;42.672;23.296;2023-02-08T13:34:28;10.63;;;6.37;;
35891;SDS011;21993;42.672;23.296;2023-02-08T13:37:01;10.53;;;5.97;;
35891;SDS011;21993;42.672;23.296;2023-02-08T13:41:58;7.20;;;5.83;;
35891;SDS011;21993;42.672;23.296;2023-02-08T13:44:27;8.90;;;6.10;;
35891;SDS011;21993;42.672;23.296;2023-02-08T13:46:57;10.40;;;6.87;;
35891;SDS011;21993;42.672;23.296;2023-02-08T13:52:10;8.20;;;6.53;;
35891;SDS011;21993;42.672;23.296;2023-02-08T13:58:07;9.67;;;6.70;;
35891;SDS011;21993;42.672;23.296;2023-02-08T14:03:20;11.63;;;6.80;;
35891;SDS011;21993;42.672;23.296;2023-02-08T14:05:58;8.47;;;6.63;;
35891;SDS011;21993;42.672;23.296;2023-02-08T14:08:28;9.77;;;6.53;;
35891;SDS011;21993;42.672;23.296;2023-02-08T14:13:33;9.93;;;7.17;;
35891;SDS011;21993;42.672;23.296;2023-02-08T14:16:22;12.40;;;6.70;;
35891;SDS011;21993;42.672;23.296;2023-02-08T14:18:54;9.93;;;7.07;;
35891;SDS011;21993;42.672;23.296;2023-02-08T14:24:02;11.57;;;7.13;;
35891;SDS011;21993;42.672;23.296;2023-02-08T14:26:30;13.57;;;7.97;;
35891;SDS011;21993;42.672;23.296;2023-02-08T14:29:00;14.67;;;8.10;;
35891;SDS011;21993;42.672;23.296;2023-02-08T14:32:01;13.20;;;7.57;;
35891;SDS011;21993;42.672;23.296;2023-02-08T14:34:22;12.07;;;8.13;;
35891;SDS011;21993;42.672;23.296;2023-02-08T14:37:25;14.33;;;8.67;;
35891;SDS011;21993;42.672;23.296;2023-02-08T14:39:45;14.53;;;9.03;;
35891;SDS011;21993;42.672;23.296;2023-02-08T14:42:16;11.17;;;7.50;;
35891;SDS011;21993;42.672;23.296;2023-02-08T14:58:38;18.87;;;9.53;;
35891;SDS011;21993;42.672;23.296;2023-02-08T15:01:10;13.03;;;8.20;;
35891;SDS011;21993;42.672;23.296;2023-02-08T15:03:41;14.70;;;9.33;;
35891;SDS011;21993;42.672;23.296;2023-02-08T15:08:49;15.57;;;8.73;;
35891;SDS011;21993;42.672;23.296;2023-02-08T15:11:27;12.50;;;8.80;;
35891;SDS011;21993;42.672;23.296;2023-02-08T15:13:55;13.40;;;8.20;;
35891;SDS011;21993;42.672;23.296;2023-02-08T15:16:25;16.17;;;8.93;;
35891;SDS011;21993;42.672;23.296;2023-02-08T15:18:56;15.17;;;9.63;;
35891;SDS011;21993;42.672;23.296;2023-02-08T15:21:22;15.43;;;9.60;;
35891;SDS011;21993;42.672;23.296;2023-02-08T15:24:13;16.87;;;9.40;;
35891;SDS011;21993;42.672;23.296;2023-02-08T15:26:48;13.63;;;7.63;;
35891;SDS011;21993;42.672;23.296;2023-02-08T15:29:28;14.13;;;7.90;;
35891;SDS011;21993;42.672;23.296;2023-02-08T15:31:54;11.00;;;7.37;;
35891;SDS011;21993;42.672;23.296;2023-02-08T15:34:21;13.80;;;8.10;;
35891;SDS011;21993;42.672;23.296;2023-02-08T15:36:53;16.50;;;9.20;;
35891;SDS011;21993;42.672;23.296;2023-02-08T15:39:28;15.60;;;8.73;;
35891;SDS011;21993;42.672;23.296;2023-02-08T15:42:03;10.73;;;7.73;;
35891;SDS011;21993;42.672;23.296;2023-02-08T15:44:31;11.63;;;7.83;;
35891;SDS011;21993;42.672;23.296;2023-02-08T15:46:58;14.67;;;8.17;;
35891;SDS011;21993;42.672;23.296;2023-02-08T15:49:33;15.13;;;8.93;;
35891;SDS011;21993;42.672;23.296;2023-02-08T15:52:00;13.63;;;7.83;;
35891;SDS011;21993;42.672;23.296;2023-02-08T15:54:27;15.53;;;9.17;;
35891;SDS011;21993;42.672;23.296;2023-02-08T15:56:54;15.17;;;8.80;;
35891;SDS011;21993;42.672;23.296;2023-02-08T15:59:29;16.40;;;8.50;;
35891;SDS011;21993;42.672;23.296;2023-02-08T16:02:08;14.87;;;8.60;;
35891;SDS011;21993;42.672;23.296;2023-02-08T16:04:48;13.93;;;8.37;;
35891;SDS011;21993;42.672;23.296;2023-02-08T16:10:00;13.20;;;7.53;;
35891;SDS011;21993;42.672;23.296;2023-02-08T16:12:26;13.60;;;8.50;;
35891;SDS011;21993;42.672;23.296;2023-02-08T16:14:53;17.23;;;7.57;;
35891;SDS011;21993;42.672;23.296;2023-02-08T16:19:56;13.33;;;8.17;;
35891;SDS011;21993;42.672;23.296;2023-02-08T16:22:25;11.30;;;7.30;;
35891;SDS011;21993;42.672;23.296;2023-02-08T16:25:20;14.13;;;8.70;;
35891;SDS011;21993;42.672;23.296;2023-02-08T16:27:46;16.57;;;8.47;;
35891;SDS011;21993;42.672;23.296;2023-02-08T16:30:19;15.47;;;7.87;;
35891;SDS011;21993;42.672;23.296;2023-02-08T16:32:45;12.77;;;7.50;;
35891;SDS011;21993;42.672;23.296;2023-02-08T16:35:12;10.60;;;6.63;;
35891;SDS011;21993;42.672;23.296;2023-02-08T16:37:38;13.93;;;6.70;;
35891;SDS011;21993;42.672;23.296;2023-02-08T16:40:05;10.70;;;7.10;;
35891;SDS011;21993;42.672;23.296;2023-02-08T16:42:51;14.70;;;7.60;;
35891;SDS011;21993;42.672;23.296;2023-02-08T16:45:17;15.80;;;7.63;;
35891;SDS011;21993;42.672;23.296;2023-02-08T16:50:21;15.23;;;8.27;;
35891;SDS011;21993;42.672;23.296;2023-02-08T16:53:06;13.13;;;8.30;;
35891;SDS011;21993;42.672;23.296;2023-02-08T16:55:32;11.47;;;7.33;;
35891;SDS011;21993;42.672;23.296;2023-02-08T16:58:00;11.17;;;7.53;;
35891;SDS011;21993;42.672;23.296;2023-02-08T17:00:30;12.13;;;6.73;;
35891;SDS011;21993;42.672;23.296;2023-02-08T17:02:58;11.70;;;7.33;;
35891;SDS011;21993;42.672;23.296;2023-02-08T17:05:27;12.43;;;7.87;;
35891;SDS011;21993;42.672;23.296;2023-02-08T17:07:55;13.27;;;7.00;;
35891;SDS011;21993;42.672;23.296;2023-02-08T17:10:25;12.60;;;7.20;;
35891;SDS011;21993;42.672;23.296;2023-02-08T17:12:52;11.27;;;7.17;;
35891;SDS011;21993;42.672;23.296;2023-02-08T17:15:18;12.97;;;7.57;;
35891;SDS011;21993;42.672;23.296;2023-02-08T17:17:45;13.50;;;8.20;;
35891;SDS011;21993;42.672;23.296;2023-02-08T17:20:15;11.27;;;6.83;;
35891;SDS011;21993;42.672;23.296;2023-02-08T17:22:43;14.90;;;7.43;;
35891;SDS011;21993;42.672;23.296;2023-02-08T17:25:09;13.60;;;7.90;;